JST523 YSSY-YMML
Flight info
| Callsign | JST523 |
|---|---|
| Flight time | 1h 4m |
| Altitude | 32000 |
| Route | GROOK1/16R WOL H65 LEECE Q29 ML |
| Aircraft | A320/M-SDE3FGHIRWYZ/LB1 |
Departure
| Time | 2026-04-22 06:57 |
|---|---|
| Airport | Sydney Kingsford Smith International Airport (YSSY) |
Arrival
| Time | 2026-04-22 08:01 |
|---|---|
| Airport | Melbourne Airport (YMML) |
| Time | Latitude | Longitude | Altitude | Speed | Heading |
|---|---|---|---|---|---|
| 2026-04-22 06:44 | -33.93515 | 151.17697 | 30 ft | 0 kts | 101° |
| 2026-04-22 06:49 | -33.93514 | 151.17696 | 30 ft | 2 kts | 101° |
| 2026-04-22 06:49 | -33.93508 | 151.17666 | 30 ft | 4 kts | 115° |
| 2026-04-22 06:50 | -33.93495 | 151.17639 | 30 ft | 4 kts | 116° |
| 2026-04-22 06:50 | -33.93490 | 151.17610 | 30 ft | 4 kts | 61° |
| 2026-04-22 06:50 | -33.93508 | 151.17593 | 30 ft | 4 kts | 357° |
| 2026-04-22 06:50 | -33.93514 | 151.17593 | 30 ft | 0 kts | 348° |
| 2026-04-22 06:53 | -33.93513 | 151.17593 | 30 ft | 1 kts | 348° |
| 2026-04-22 06:54 | -33.93468 | 151.17585 | 30 ft | 14 kts | 360° |
| 2026-04-22 06:54 | -33.93349 | 151.17584 | 30 ft | 18 kts | 348° |
| 2026-04-22 06:54 | -33.93222 | 151.17548 | 30 ft | 20 kts | 347° |
| 2026-04-22 06:54 | -33.93089 | 151.17518 | 30 ft | 17 kts | 353° |
| 2026-04-22 06:55 | -33.93002 | 151.17527 | 30 ft | 13 kts | 331° |
| 2026-04-22 06:55 | -33.92978 | 151.17423 | 30 ft | 14 kts | 279° |
| 2026-04-22 06:55 | -33.92958 | 151.17302 | 30 ft | 16 kts | 282° |
| 2026-04-22 06:55 | -33.92987 | 151.17184 | 30 ft | 16 kts | 201° |
| 2026-04-22 06:56 | -33.93172 | 151.17223 | 31 ft | 52 kts | 168° |
| 2026-04-22 06:56 | -33.93726 | 151.17364 | 28 ft | 109 kts | 168° |
| 2026-04-22 06:56 | -33.94626 | 151.17596 | 35 ft | 153 kts | 166° |
| 2026-04-22 06:56 | -33.95659 | 151.17856 | 620 ft | 150 kts | 170° |
| 2026-04-22 06:57 | -33.96702 | 151.17920 | 1222 ft | 150 kts | 180° |
| 2026-04-22 06:57 | -33.97751 | 151.17857 | 1765 ft | 153 kts | 179° |
| 2026-04-22 06:57 | -33.98878 | 151.17779 | 2026 ft | 173 kts | 180° |
| 2026-04-22 06:57 | -34.00168 | 151.17693 | 2257 ft | 198 kts | 181° |
| 2026-04-22 06:58 | -34.01624 | 151.17601 | 2578 ft | 221 kts | 181° |
| 2026-04-22 06:58 | -34.03230 | 151.17703 | 3024 ft | 240 kts | 165° |
| 2026-04-22 06:58 | -34.04871 | 151.18240 | 3788 ft | 248 kts | 164° |
| 2026-04-22 06:58 | -34.06546 | 151.18796 | 4660 ft | 251 kts | 165° |
| 2026-04-22 06:59 | -34.08246 | 151.19363 | 5531 ft | 254 kts | 165° |
| 2026-04-22 06:59 | -34.09944 | 151.19929 | 6356 ft | 259 kts | 165° |
| 2026-04-22 06:59 | -34.11694 | 151.20514 | 7137 ft | 263 kts | 165° |
| 2026-04-22 06:59 | -34.13472 | 151.21110 | 7927 ft | 266 kts | 164° |
| 2026-04-22 07:00 | -34.15271 | 151.21709 | 8728 ft | 269 kts | 163° |
| 2026-04-22 07:00 | -34.17097 | 151.22293 | 9509 ft | 273 kts | 168° |
| 2026-04-22 07:00 | -34.18991 | 151.22364 | 10233 ft | 281 kts | 186° |
| 2026-04-22 07:00 | -34.20876 | 151.21630 | 10799 ft | 296 kts | 205° |
| 2026-04-22 07:01 | -34.22531 | 151.20003 | 11164 ft | 316 kts | 226° |
| 2026-04-22 07:01 | -34.23969 | 151.17949 | 11774 ft | 322 kts | 226° |
| 2026-04-22 07:01 | -34.25429 | 151.15882 | 12454 ft | 325 kts | 226° |
| 2026-04-22 07:01 | -34.26911 | 151.13798 | 13130 ft | 328 kts | 225° |
| 2026-04-22 07:02 | -34.28409 | 151.11695 | 13816 ft | 332 kts | 225° |
| 2026-04-22 07:02 | -34.29922 | 151.09572 | 14436 ft | 335 kts | 225° |
| 2026-04-22 07:02 | -34.31447 | 151.07429 | 15051 ft | 337 kts | 225° |
| 2026-04-22 07:02 | -34.32963 | 151.05290 | 15670 ft | 339 kts | 225° |
| 2026-04-22 07:03 | -34.34504 | 151.03113 | 16289 ft | 341 kts | 224° |
| 2026-04-22 07:03 | -34.36053 | 151.00928 | 16904 ft | 343 kts | 224° |
| 2026-04-22 07:03 | -34.37674 | 150.98797 | 17487 ft | 343 kts | 218° |
| 2026-04-22 07:03 | -34.39485 | 150.96820 | 17662 ft | 358 kts | 217° |
| 2026-04-22 07:04 | -34.41368 | 150.94788 | 18101 ft | 365 kts | 216° |
| 2026-04-22 07:04 | -34.43270 | 150.92733 | 18672 ft | 368 kts | 216° |
| 2026-04-22 07:04 | -34.45164 | 150.90682 | 19190 ft | 370 kts | 217° |
| 2026-04-22 07:04 | -34.47088 | 150.88596 | 19738 ft | 373 kts | 217° |
| 2026-04-22 07:05 | -34.49028 | 150.86489 | 20292 ft | 375 kts | 217° |
| 2026-04-22 07:05 | -34.50972 | 150.84371 | 20850 ft | 377 kts | 217° |
| 2026-04-22 07:05 | -34.52929 | 150.82236 | 21388 ft | 379 kts | 217° |
| 2026-04-22 07:05 | -34.54898 | 150.80079 | 21913 ft | 383 kts | 219° |
| 2026-04-22 07:06 | -34.56688 | 150.77649 | 22422 ft | 390 kts | 228° |
| 2026-04-22 07:06 | -34.58297 | 150.74984 | 22931 ft | 393 kts | 229° |
| 2026-04-22 07:06 | -34.59916 | 150.72294 | 23466 ft | 395 kts | 229° |
| 2026-04-22 07:06 | -34.61518 | 150.69633 | 23960 ft | 397 kts | 229° |
| 2026-04-22 07:07 | -34.63148 | 150.66924 | 24376 ft | 398 kts | 229° |
| 2026-04-22 07:07 | -34.64787 | 150.64202 | 24804 ft | 399 kts | 229° |
| 2026-04-22 07:07 | -34.66428 | 150.61473 | 25214 ft | 401 kts | 230° |
| 2026-04-22 07:07 | -34.68077 | 150.58732 | 25632 ft | 402 kts | 230° |
| 2026-04-22 07:08 | -34.69730 | 150.55983 | 26023 ft | 404 kts | 230° |
| 2026-04-22 07:08 | -34.71391 | 150.53219 | 26408 ft | 405 kts | 230° |
| 2026-04-22 07:08 | -34.73055 | 150.50448 | 26798 ft | 407 kts | 230° |
| 2026-04-22 07:08 | -34.74729 | 150.47660 | 27179 ft | 408 kts | 230° |
| 2026-04-22 07:09 | -34.76382 | 150.44903 | 27538 ft | 410 kts | 230° |
| 2026-04-22 07:09 | -34.78066 | 150.42089 | 27910 ft | 412 kts | 231° |
| 2026-04-22 07:09 | -34.79753 | 150.39261 | 28295 ft | 413 kts | 231° |
| 2026-04-22 07:09 | -34.81444 | 150.36423 | 28672 ft | 415 kts | 231° |
| 2026-04-22 07:10 | -34.83137 | 150.33578 | 29022 ft | 416 kts | 231° |
| 2026-04-22 07:10 | -34.84842 | 150.30713 | 29389 ft | 418 kts | 231° |
| 2026-04-22 07:10 | -34.86555 | 150.27835 | 29744 ft | 419 kts | 231° |
| 2026-04-22 07:10 | -34.88270 | 150.24957 | 30075 ft | 421 kts | 231° |
| 2026-04-22 07:11 | -34.89973 | 150.22100 | 30475 ft | 421 kts | 231° |
| 2026-04-22 07:11 | -34.91688 | 150.19220 | 30897 ft | 419 kts | 231° |
| 2026-04-22 07:11 | -34.93392 | 150.16350 | 31331 ft | 417 kts | 231° |
| 2026-04-22 07:11 | -34.95090 | 150.13493 | 31777 ft | 415 kts | 232° |
| 2026-04-22 07:12 | -34.96781 | 150.10648 | 32199 ft | 414 kts | 232° |
| 2026-04-22 07:12 | -34.98472 | 150.07804 | 32335 ft | 412 kts | 232° |
| 2026-04-22 07:12 | -35.00145 | 150.04982 | 32361 ft | 408 kts | 232° |
| 2026-04-22 07:13 | -35.03436 | 149.99405 | 32361 ft | 407 kts | 232° |
| 2026-04-22 07:13 | -35.06750 | 149.93796 | 32358 ft | 407 kts | 232° |
| 2026-04-22 07:14 | -35.10070 | 149.88171 | 32359 ft | 408 kts | 232° |
| 2026-04-22 07:14 | -35.13377 | 149.82543 | 32356 ft | 408 kts | 232° |
| 2026-04-22 07:15 | -35.16666 | 149.76936 | 32351 ft | 408 kts | 232° |
| 2026-04-22 07:15 | -35.19976 | 149.71296 | 32350 ft | 408 kts | 232° |
| 2026-04-22 07:16 | -35.23281 | 149.65657 | 32347 ft | 408 kts | 232° |
| 2026-04-22 07:16 | -35.26591 | 149.60001 | 32346 ft | 408 kts | 232° |
| 2026-04-22 07:17 | -35.29881 | 149.54369 | 32349 ft | 409 kts | 232° |
| 2026-04-22 07:17 | -35.33186 | 149.48693 | 32350 ft | 409 kts | 232° |
| 2026-04-22 07:18 | -35.36489 | 149.43011 | 32351 ft | 409 kts | 232° |
| 2026-04-22 07:18 | -35.39775 | 149.37364 | 32357 ft | 409 kts | 233° |
| 2026-04-22 07:19 | -35.43082 | 149.31672 | 32363 ft | 410 kts | 233° |
| 2026-04-22 07:19 | -35.46384 | 149.25961 | 32359 ft | 410 kts | 233° |
| 2026-04-22 07:20 | -35.49675 | 149.20267 | 32355 ft | 410 kts | 233° |
| 2026-04-22 07:20 | -35.52979 | 149.14552 | 32349 ft | 411 kts | 233° |
| 2026-04-22 07:21 | -35.56287 | 149.08819 | 32341 ft | 411 kts | 233° |
| 2026-04-22 07:21 | -35.59571 | 149.03119 | 32338 ft | 411 kts | 233° |
| 2026-04-22 07:22 | -35.62872 | 148.97371 | 32332 ft | 411 kts | 233° |
| 2026-04-22 07:22 | -35.66172 | 148.91605 | 32335 ft | 412 kts | 233° |
| 2026-04-22 07:23 | -35.69465 | 148.85854 | 32336 ft | 412 kts | 233° |
| 2026-04-22 07:23 | -35.72770 | 148.80075 | 32338 ft | 413 kts | 233° |
| 2026-04-22 07:24 | -35.76073 | 148.74287 | 32338 ft | 413 kts | 233° |
| 2026-04-22 07:24 | -35.79375 | 148.68496 | 32339 ft | 413 kts | 234° |
| 2026-04-22 07:25 | -35.82653 | 148.62737 | 32336 ft | 413 kts | 234° |
| 2026-04-22 07:25 | -35.85953 | 148.56926 | 32334 ft | 413 kts | 234° |
| 2026-04-22 07:26 | -35.89247 | 148.51113 | 32334 ft | 414 kts | 234° |
| 2026-04-22 07:26 | -35.92545 | 148.45270 | 32331 ft | 415 kts | 234° |
| 2026-04-22 07:27 | -35.95831 | 148.39417 | 32338 ft | 415 kts | 234° |
| 2026-04-22 07:27 | -35.99101 | 148.33582 | 32331 ft | 415 kts | 234° |
| 2026-04-22 07:28 | -36.04038 | 148.24784 | 32326 ft | 415 kts | 234° |
| 2026-04-22 07:28 | -36.07332 | 148.18905 | 32319 ft | 416 kts | 234° |
| 2026-04-22 07:29 | -36.10063 | 148.14010 | 32315 ft | 416 kts | 235° |
| 2026-04-22 07:29 | -36.13349 | 148.08110 | 32323 ft | 416 kts | 235° |
| 2026-04-22 07:30 | -36.16650 | 148.02208 | 32313 ft | 417 kts | 235° |
| 2026-04-22 07:30 | -36.19956 | 147.96301 | 32317 ft | 417 kts | 235° |
| 2026-04-22 07:31 | -36.23241 | 147.90408 | 32318 ft | 417 kts | 235° |
| 2026-04-22 07:31 | -36.26544 | 147.84469 | 32317 ft | 418 kts | 235° |
| 2026-04-22 07:32 | -36.29821 | 147.78569 | 32319 ft | 418 kts | 235° |
| 2026-04-22 07:32 | -36.33118 | 147.72605 | 32318 ft | 418 kts | 236° |
| 2026-04-22 07:33 | -36.36409 | 147.66643 | 32320 ft | 418 kts | 236° |
| 2026-04-22 07:33 | -36.39677 | 147.60714 | 32322 ft | 419 kts | 236° |
| 2026-04-22 07:34 | -36.42975 | 147.54735 | 32324 ft | 419 kts | 236° |
| 2026-04-22 07:34 | -36.46266 | 147.48746 | 32325 ft | 419 kts | 236° |
| 2026-04-22 07:35 | -36.49521 | 147.42787 | 32325 ft | 419 kts | 236° |
| 2026-04-22 07:35 | -36.52803 | 147.36794 | 32326 ft | 419 kts | 236° |
| 2026-04-22 07:36 | -36.56093 | 147.30793 | 32327 ft | 420 kts | 236° |
| 2026-04-22 07:36 | -36.59370 | 147.24777 | 32330 ft | 420 kts | 236° |
| 2026-04-22 07:37 | -36.62651 | 147.18744 | 32332 ft | 420 kts | 236° |
| 2026-04-22 07:37 | -36.65899 | 147.12757 | 32334 ft | 420 kts | 236° |
| 2026-04-22 07:38 | -36.69173 | 147.06717 | 32335 ft | 420 kts | 237° |
| 2026-04-22 07:38 | -36.72443 | 147.00671 | 32337 ft | 420 kts | 237° |
| 2026-04-22 07:39 | -36.75705 | 146.94651 | 32337 ft | 420 kts | 237° |
| 2026-04-22 07:39 | -36.78969 | 146.88606 | 32341 ft | 420 kts | 237° |
| 2026-04-22 07:40 | -36.82229 | 146.82546 | 32334 ft | 420 kts | 237° |
| 2026-04-22 07:40 | -36.85491 | 146.76475 | 32327 ft | 421 kts | 237° |
| 2026-04-22 07:41 | -36.88734 | 146.70424 | 31744 ft | 418 kts | 237° |
| 2026-04-22 07:41 | -36.90360 | 146.67393 | 30570 ft | 419 kts | 237° |
| 2026-04-22 07:41 | -36.91970 | 146.64394 | 29912 ft | 410 kts | 237° |
| 2026-04-22 07:42 | -36.93549 | 146.61448 | 29488 ft | 404 kts | 237° |
| 2026-04-22 07:42 | -36.95087 | 146.58572 | 29044 ft | 400 kts | 237° |
| 2026-04-22 07:42 | -36.96625 | 146.55691 | 28602 ft | 395 kts | 237° |
| 2026-04-22 07:42 | -36.98148 | 146.52839 | 28173 ft | 391 kts | 237° |
| 2026-04-22 07:43 | -36.99653 | 146.50020 | 27756 ft | 388 kts | 237° |
| 2026-04-22 07:43 | -37.01150 | 146.47208 | 27338 ft | 386 kts | 237° |
| 2026-04-22 07:43 | -37.02615 | 146.44451 | 26943 ft | 383 kts | 237° |
| 2026-04-22 07:43 | -37.04090 | 146.41676 | 26538 ft | 382 kts | 237° |
| 2026-04-22 07:44 | -37.05560 | 146.38905 | 26136 ft | 381 kts | 237° |
| 2026-04-22 07:44 | -37.07021 | 146.36147 | 25744 ft | 380 kts | 237° |
| 2026-04-22 07:44 | -37.08483 | 146.33389 | 25324 ft | 379 kts | 237° |
| 2026-04-22 07:44 | -37.09941 | 146.30639 | 24902 ft | 378 kts | 237° |
| 2026-04-22 07:45 | -37.11393 | 146.27900 | 24476 ft | 377 kts | 237° |
| 2026-04-22 07:45 | -37.12846 | 146.25155 | 24040 ft | 377 kts | 237° |
| 2026-04-22 07:45 | -37.14278 | 146.22444 | 23563 ft | 377 kts | 237° |
| 2026-04-22 07:45 | -37.15724 | 146.19705 | 23102 ft | 375 kts | 237° |
| 2026-04-22 07:46 | -37.17159 | 146.16989 | 22658 ft | 373 kts | 237° |
| 2026-04-22 07:46 | -37.18589 | 146.14282 | 22208 ft | 371 kts | 237° |
| 2026-04-22 07:46 | -37.20011 | 146.11585 | 21749 ft | 369 kts | 237° |
| 2026-04-22 07:46 | -37.21420 | 146.08908 | 21298 ft | 367 kts | 237° |
| 2026-04-22 07:47 | -37.22821 | 146.06244 | 20844 ft | 365 kts | 237° |
| 2026-04-22 07:47 | -37.24213 | 146.03595 | 20395 ft | 363 kts | 237° |
| 2026-04-22 07:47 | -37.25585 | 146.00984 | 19945 ft | 361 kts | 237° |
| 2026-04-22 07:47 | -37.26972 | 145.98345 | 19498 ft | 360 kts | 237° |
| 2026-04-22 07:48 | -37.28345 | 145.95727 | 19050 ft | 359 kts | 237° |
| 2026-04-22 07:48 | -37.29714 | 145.93114 | 18596 ft | 357 kts | 237° |
| 2026-04-22 07:48 | -37.31078 | 145.90510 | 18112 ft | 355 kts | 237° |
| 2026-04-22 07:48 | -37.32432 | 145.87931 | 17672 ft | 352 kts | 237° |
| 2026-04-22 07:49 | -37.33783 | 145.85361 | 17221 ft | 350 kts | 237° |
| 2026-04-22 07:49 | -37.35120 | 145.82816 | 16787 ft | 347 kts | 237° |
| 2026-04-22 07:49 | -37.36446 | 145.80291 | 16356 ft | 345 kts | 237° |
| 2026-04-22 07:49 | -37.37764 | 145.77777 | 15925 ft | 343 kts | 237° |
| 2026-04-22 07:50 | -37.39077 | 145.75276 | 15495 ft | 341 kts | 237° |
| 2026-04-22 07:50 | -37.40365 | 145.72818 | 15076 ft | 340 kts | 237° |
| 2026-04-22 07:50 | -37.41662 | 145.70333 | 14655 ft | 339 kts | 237° |
| 2026-04-22 07:50 | -37.42953 | 145.67855 | 14231 ft | 337 kts | 237° |
| 2026-04-22 07:51 | -37.44236 | 145.65389 | 13774 ft | 336 kts | 237° |
| 2026-04-22 07:51 | -37.45513 | 145.62939 | 13356 ft | 333 kts | 237° |
| 2026-04-22 07:51 | -37.46781 | 145.60517 | 12944 ft | 330 kts | 237° |
| 2026-04-22 07:51 | -37.48046 | 145.58111 | 12535 ft | 328 kts | 237° |
| 2026-04-22 07:52 | -37.49290 | 145.55751 | 12134 ft | 326 kts | 237° |
| 2026-04-22 07:52 | -37.50541 | 145.53376 | 11730 ft | 325 kts | 237° |
| 2026-04-22 07:52 | -37.51786 | 145.51008 | 11325 ft | 323 kts | 237° |
| 2026-04-22 07:52 | -37.53021 | 145.48651 | 10922 ft | 322 kts | 236° |
| 2026-04-22 07:53 | -37.54248 | 145.46302 | 10530 ft | 321 kts | 236° |
| 2026-04-22 07:53 | -37.55459 | 145.43978 | 10354 ft | 312 kts | 236° |
| 2026-04-22 07:53 | -37.56630 | 145.41730 | 10200 ft | 302 kts | 236° |
| 2026-04-22 07:53 | -37.57774 | 145.39535 | 9617 ft | 297 kts | 236° |
| 2026-04-22 07:54 | -37.58906 | 145.37367 | 9010 ft | 294 kts | 236° |
| 2026-04-22 07:54 | -37.60012 | 145.35245 | 8417 ft | 290 kts | 236° |
| 2026-04-22 07:54 | -37.61113 | 145.33133 | 7842 ft | 287 kts | 235° |
| 2026-04-22 07:54 | -37.62204 | 145.31038 | 7343 ft | 281 kts | 235° |
| 2026-04-22 07:55 | -37.63242 | 145.29042 | 7161 ft | 264 kts | 235° |
| 2026-04-22 07:55 | -37.64202 | 145.27108 | 6771 ft | 257 kts | 242° |
| 2026-04-22 07:55 | -37.64818 | 145.25011 | 6604 ft | 257 kts | 255° |
| 2026-04-22 07:55 | -37.65091 | 145.22776 | 6216 ft | 261 kts | 262° |
| 2026-04-22 07:56 | -37.65318 | 145.20516 | 5953 ft | 258 kts | 261° |
| 2026-04-22 07:56 | -37.65546 | 145.18287 | 5509 ft | 255 kts | 261° |
| 2026-04-22 07:56 | -37.65774 | 145.16075 | 4991 ft | 253 kts | 261° |
| 2026-04-22 07:56 | -37.66001 | 145.13879 | 4471 ft | 251 kts | 261° |
| 2026-04-22 07:57 | -37.66223 | 145.11691 | 3887 ft | 252 kts | 261° |
| 2026-04-22 07:57 | -37.66440 | 145.09543 | 3626 ft | 239 kts | 261° |
| 2026-04-22 07:57 | -37.66645 | 145.07535 | 3495 ft | 229 kts | 261° |
| 2026-04-22 07:57 | -37.66846 | 145.05589 | 3382 ft | 219 kts | 262° |
| 2026-04-22 07:58 | -37.67038 | 145.03731 | 3288 ft | 208 kts | 262° |
| 2026-04-22 07:58 | -37.67149 | 145.01926 | 3072 ft | 206 kts | 270° |
| 2026-04-22 07:58 | -37.67096 | 145.00127 | 2808 ft | 205 kts | 274° |
| 2026-04-22 07:58 | -37.67001 | 144.98337 | 2541 ft | 204 kts | 274° |
| 2026-04-22 07:59 | -37.66901 | 144.96571 | 2301 ft | 196 kts | 275° |
| 2026-04-22 07:59 | -37.66806 | 144.94899 | 2024 ft | 186 kts | 277° |
| 2026-04-22 07:59 | -37.66717 | 144.93333 | 1770 ft | 174 kts | 276° |
| 2026-04-22 07:59 | -37.66637 | 144.91913 | 1572 ft | 153 kts | 278° |
| 2026-04-22 08:00 | -37.66562 | 144.90619 | 1369 ft | 145 kts | 277° |
| 2026-04-22 08:00 | -37.66489 | 144.89356 | 1174 ft | 144 kts | 278° |
| 2026-04-22 08:00 | -37.66415 | 144.88096 | 972 ft | 144 kts | 278° |
| 2026-04-22 08:00 | -37.66343 | 144.86829 | 799 ft | 146 kts | 278° |
| 2026-04-22 08:01 | -37.66275 | 144.85551 | 601 ft | 146 kts | 277° |
| 2026-04-22 08:01 | -37.66200 | 144.84288 | 411 ft | 142 kts | 278° |
| 2026-04-22 08:01 | -37.66139 | 144.83296 | 414 ft | 80 kts | 274° |
| 2026-04-22 08:01 | -37.66106 | 144.82840 | 406 ft | 41 kts | 276° |
| 2026-04-22 08:02 | -37.66083 | 144.82483 | 398 ft | 41 kts | 275° |
| 2026-04-22 08:02 | -37.66149 | 144.82234 | 399 ft | 20 kts | 205° |
| 2026-04-22 08:02 | -37.66255 | 144.82228 | 390 ft | 19 kts | 186° |
| 2026-04-22 08:02 | -37.66384 | 144.82300 | 385 ft | 21 kts | 115° |
| 2026-04-22 08:03 | -37.66407 | 144.82433 | 379 ft | 17 kts | 102° |
| 2026-04-22 08:03 | -37.66427 | 144.82584 | 383 ft | 17 kts | 99° |
| 2026-04-22 08:03 | -37.66443 | 144.82733 | 386 ft | 18 kts | 94° |
| 2026-04-22 08:03 | -37.66453 | 144.82898 | 387 ft | 19 kts | 93° |
| 2026-04-22 08:04 | -37.66462 | 144.83064 | 393 ft | 18 kts | 96° |
| 2026-04-22 08:04 | -37.66472 | 144.83214 | 399 ft | 17 kts | 94° |
| 2026-04-22 08:04 | -37.66480 | 144.83363 | 402 ft | 17 kts | 94° |
| 2026-04-22 08:04 | -37.66488 | 144.83516 | 404 ft | 18 kts | 95° |
| 2026-04-22 08:05 | -37.66495 | 144.83653 | 405 ft | 16 kts | 93° |
| 2026-04-22 08:05 | -37.66504 | 144.83808 | 402 ft | 20 kts | 94° |
| 2026-04-22 08:05 | -37.66557 | 144.83939 | 402 ft | 19 kts | 165° |
| 2026-04-22 08:05 | -37.66706 | 144.83968 | 393 ft | 24 kts | 170° |
| 2026-04-22 08:06 | -37.66877 | 144.84002 | 389 ft | 19 kts | 173° |
| 2026-04-22 08:06 | -37.67018 | 144.84024 | 385 ft | 21 kts | 170° |
| 2026-04-22 08:06 | -37.67079 | 144.84137 | 383 ft | 18 kts | 85° |
| 2026-04-22 08:06 | -37.67100 | 144.84250 | 384 ft | 10 kts | 173° |
| 2026-04-22 08:07 | -37.67180 | 144.84267 | 382 ft | 10 kts | 169° |
| 2026-04-22 08:07 | -37.67198 | 144.84272 | 382 ft | 0 kts | 169° |
| 2026-04-22 08:07 | -37.67228 | 144.84279 | 381 ft | 8 kts | 170° |
| 2026-04-22 08:08 | -37.67309 | 144.84289 | 380 ft | 14 kts | 171° |
| 2026-04-22 08:08 | -37.67420 | 144.84313 | 377 ft | 18 kts | 171° |
| 2026-04-22 08:08 | -37.67526 | 144.84331 | 375 ft | 17 kts | 174° |
| 2026-04-22 08:08 | -37.67646 | 144.84354 | 371 ft | 15 kts | 172° |
| 2026-04-22 08:09 | -37.67765 | 144.84377 | 371 ft | 20 kts | 169° |
| 2026-04-22 08:09 | -37.67837 | 144.84446 | 370 ft | 11 kts | 83° |
| 2026-04-22 08:09 | -37.67821 | 144.84548 | 365 ft | 12 kts | 79° |
| 2026-04-22 08:09 | -37.67771 | 144.84599 | 369 ft | 6 kts | 17° |
| 2026-04-22 08:10 | -37.67742 | 144.84669 | 371 ft | 13 kts | 81° |
| 2026-04-22 08:10 | -37.67718 | 144.84769 | 372 ft | 7 kts | 27° |
| 2026-04-22 08:10 | -37.67680 | 144.84762 | 374 ft | 9 kts | 354° |
| 2026-04-22 08:10 | -37.67625 | 144.84752 | 376 ft | 0 kts | 351° |